Time;durP1;ratioP1;P1;durP2;ratioP2;P2;SDS_P1;SDS_P2;PMS_P1;PMS_P2;Temp;Humidity;BMP_temperature;BMP_pressure;BME280_temperature;BME280_humidity;BME280_pressure;Samples;Min_cycle;Max_cycle;Signal;HPM_P1;HPM_P2
2021/05/20 00:02:13;;;;;;;3.70;3.30;;;11.50;99.90;;;;;;5094335;28;20181;-49
2021/05/20 00:04:40;;;;;;;2.90;2.70;;;11.40;99.90;;;;;;5095323;28;20296;-47
2021/05/20 00:07:05;;;;;;;3.37;3.07;;;11.50;99.90;;;;;;5095388;28;20292;-51
2021/05/20 00:09:31;;;;;;;3.70;2.90;;;11.40;99.90;;;;;;5094060;27;20182;-51
2021/05/20 00:11:56;;;;;;;3.57;2.73;;;11.40;99.90;;;;;;5095141;28;20257;-49
2021/05/20 00:14:22;;;;;;;4.00;2.60;;;11.40;99.90;;;;;;5094448;28;20641;-47
2021/05/20 00:16:49;;;;;;;5.20;2.90;;;11.40;99.90;;;;;;5093993;28;20190;-50
2021/05/20 00:19:15;;;;;;;3.00;2.80;;;11.50;99.90;;;;;;5095314;28;20256;-50
2021/05/20 00:21:40;;;;;;;3.20;2.90;;;11.40;99.90;;;;;;5094773;28;20231;-54
2021/05/20 00:27:29;;;;;;;3.20;2.90;;;11.30;99.90;;;;;;5095158;28;20251;-52
2021/05/20 00:29:55;;;;;;;3.53;3.00;;;11.20;99.90;;;;;;5094926;28;20166;-55
2021/05/20 00:32:20;;;;;;;3.37;3.07;;;11.10;99.90;;;;;;5093844;27;20185;-50
2021/05/20 00:34:46;;;;;;;5.00;3.83;;;11.10;99.90;;;;;;5094889;28;20181;-48
2021/05/20 00:37:11;;;;;;;4.00;3.23;;;11.00;99.90;;;;;;5094150;28;20200;-47
2021/05/20 00:39:37;;;;;;;3.63;3.33;;;10.90;99.90;;;;;;5094010;28;20534;-48
2021/05/20 00:42:10;;;;;;;3.40;2.80;;;10.90;99.90;;;;;;5094514;28;20518;-54
2021/05/20 00:44:55;;;;;;;4.93;3.13;;;10.80;99.90;;;;;;5093428;28;20766;-48
2021/05/20 00:47:21;;;;;;;4.00;3.60;;;10.90;99.90;;;;;;5094790;28;20197;-48
2021/05/20 00:49:47;;;;;;;3.70;3.40;;;10.80;99.90;;;;;;5094181;28;20258;-50
2021/05/20 00:52:13;;;;;;;4.00;3.60;;;10.70;99.90;;;;;;5093878;28;20639;-48
2021/05/20 00:54:39;;;;;;;5.20;3.67;;;10.70;99.90;;;;;;5094557;28;20162;-48
2021/05/20 00:57:05;;;;;;;4.30;3.37;;;10.60;99.90;;;;;;5094428;28;20185;-49
2021/05/20 00:59:31;;;;;;;4.40;4.00;;;10.50;99.90;;;;;;5094395;28;20168;-52
2021/05/20 01:01:57;;;;;;;4.17;3.67;;;10.50;99.90;;;;;;5093118;28;20213;-49
2021/05/20 01:04:22;;;;;;;4.67;4.00;;;10.40;99.90;;;;;;5093949;28;20201;-48
2021/05/20 01:06:48;;;;;;;3.70;3.40;;;10.40;99.90;;;;;;5093972;28;20197;-47
2021/05/20 01:09:13;;;;;;;4.33;3.93;;;10.30;99.90;;;;;;5093933;28;20165;-48
2021/05/20 01:11:41;;;;;;;5.40;3.50;;;10.20;99.90;;;;;;5093132;28;20202;-48
2021/05/20 01:14:10;;;;;;;4.47;3.40;;;10.10;99.90;;;;;;5094290;28;20181;-47
2021/05/20 01:16:37;;;;;;;3.60;3.30;;;10.10;99.90;;;;;;5094214;28;20202;-51
2021/05/20 01:19:03;;;;;;;4.73;3.23;;;10.00;99.90;;;;;;5094119;28;20169;-50
2021/05/20 01:21:28;;;;;;;4.23;3.10;;;9.90;99.90;;;;;;5093947;28;20657;-50
2021/05/20 01:23:54;;;;;;;6.70;3.10;;;9.90;99.90;;;;;;5094364;28;20225;-48
2021/05/20 01:26:20;;;;;;;3.33;3.03;;;9.80;99.90;;;;;;5092893;27;20198;-47
2021/05/20 01:28:45;;;;;;;3.50;3.20;;;9.70;99.90;;;;;;5094112;28;20252;-51
2021/05/20 01:31:11;;;;;;;3.57;3.20;;;9.70;99.90;;;;;;5092832;28;20162;-51
2021/05/20 01:33:36;;;;;;;4.03;2.70;;;9.80;99.90;;;;;;5093176;28;20174;-50
2021/05/20 01:36:02;;;;;;;3.50;3.20;;;9.80;99.90;;;;;;5092085;28;20194;-55
2021/05/20 01:38:48;;;;;;;3.03;2.73;;;9.80;99.90;;;;;;5093820;28;20579;-48
2021/05/20 01:41:13;;;;;;;3.40;3.10;;;9.80;99.90;;;;;;5092902;28;20204;-49
2021/05/20 01:43:40;;;;;;;2.93;2.73;;;9.80;99.90;;;;;;5093467;28;20549;-49
2021/05/20 01:46:06;;;;;;;3.20;2.90;;;9.80;99.90;;;;;;5093967;28;20185;-52
2021/05/20 01:48:40;;;;;;;3.40;3.10;;;9.80;99.90;;;;;;5092891;28;20173;-53
2021/05/20 01:51:16;;;;;;;3.13;2.87;;;9.80;99.90;;;;;;5093801;28;20177;-55
2021/05/20 01:53:44;;;;;;;2.97;2.70;;;9.80;99.90;;;;;;5093448;27;20201;-52
2021/05/20 01:56:10;;;;;;;3.13;2.70;;;9.80;99.90;;;;;;5091957;28;20193;-48
2021/05/20 01:58:37;;;;;;;2.77;2.57;;;9.80;99.90;;;;;;5092425;28;20201;-50
2021/05/20 02:01:03;;;;;;;2.60;2.40;;;9.80;99.90;;;;;;5091670;28;20166;-48
2021/05/20 02:03:29;;;;;;;2.97;2.63;;;9.80;99.90;;;;;;5093616;28;20217;-49
2021/05/20 02:05:57;;;;;;;2.83;2.63;;;9.90;99.90;;;;;;5092851;27;20653;-49
2021/05/20 02:08:23;;;;;;;3.37;2.90;;;9.90;99.90;;;;;;5093123;28;20177;-52
2021/05/20 02:10:49;;;;;;;2.87;2.67;;;9.90;99.90;;;;;;5093789;28;20166;-54
2021/05/20 02:13:15;;;;;;;7.00;2.57;;;9.90;99.90;;;;;;5092450;28;20166;-48
2021/05/20 02:15:40;;;;;;;2.57;2.27;;;9.80;99.90;;;;;;5092733;28;20249;-49
2021/05/20 02:18:06;;;;;;;2.77;2.47;;;9.80;99.90;;;;;;5097548;28;20358;-48
2021/05/20 02:20:33;;;;;;;2.73;2.43;;;9.80;99.90;;;;;;5097659;28;20276;-49
2021/05/20 02:22:58;;;;;;;2.67;2.40;;;9.80;99.90;;;;;;5096142;27;20182;-48
2021/05/20 02:25:24;;;;;;;2.90;2.60;;;9.70;99.90;;;;;;5097197;28;20177;-52
2021/05/20 02:27:49;;;;;;;4.20;2.20;;;9.80;99.90;;;;;;5096574;28;20272;-51
2021/05/20 02:30:16;;;;;;;2.20;2.00;;;9.70;99.90;;;;;;5097325;28;20201;-51
2021/05/20 02:32:42;;;;;;;2.20;2.03;;;9.60;99.90;;;;;;5097101;28;20631;-49
2021/05/20 02:35:09;;;;;;;2.47;2.07;;;9.50;99.90;;;;;;5096187;27;20730;-48
2021/05/20 02:37:35;;;;;;;2.70;1.90;;;9.50;99.90;;;;;;5097090;28;20240;-48
2021/05/20 02:40:00;;;;;;;2.77;2.13;;;9.40;99.90;;;;;;5095880;28;20281;-49
2021/05/20 02:42:26;;;;;;;3.23;1.80;;;9.40;99.90;;;;;;5096145;28;20587;-48
2021/05/20 02:44:51;;;;;;;4.30;1.93;;;9.40;99.90;;;;;;5097065;28;20583;-55
2021/05/20 02:47:17;;;;;;;1.60;1.50;;;9.40;99.90;;;;;;5097284;28;20186;-49
2021/05/20 02:49:43;;;;;;;2.03;1.53;;;9.60;99.90;;;;;;5096878;28;20499;-49
2021/05/20 02:52:09;;;;;;;2.70;2.00;;;9.70;99.90;;;;;;5095709;27;20174;-47
2021/05/20 02:54:35;;;;;;;1.73;1.60;;;9.70;99.90;;;;;;5096901;28;20185;-52
2021/05/20 02:57:01;;;;;;;1.93;1.43;;;9.80;99.90;;;;;;5096253;28;20196;-48
2021/05/20 02:59:27;;;;;;;1.70;1.60;;;9.80;99.90;;;;;;5095989;28;20177;-48
2021/05/20 03:01:53;;;;;;;1.70;1.53;;;9.80;99.90;;;;;;5095975;28;20197;-56
2021/05/20 03:04:18;;;;;;;1.40;1.30;;;9.70;99.90;;;;;;5095614;27;20214;-48
2021/05/20 03:06:44;;;;;;;1.53;1.30;;;9.70;99.90;;;;;;5096644;28;20189;-48
2021/05/20 03:09:11;;;;;;;1.60;1.30;;;9.60;99.90;;;;;;5095825;28;20300;-48
2021/05/20 03:11:37;;;;;;;1.87;1.40;;;9.70;99.90;;;;;;5095013;28;20818;-48
2021/05/20 03:14:02;;;;;;;1.70;1.40;;;9.70;99.90;;;;;;5096445;28;20197;-48
2021/05/20 03:16:28;;;;;;;1.57;1.20;;;9.60;99.90;;;;;;5096175;28;20193;-53
2021/05/20 03:18:54;;;;;;;2.60;1.40;;;9.60;99.90;;;;;;5096416;28;20530;-49
2021/05/20 03:21:20;;;;;;;1.33;1.23;;;9.50;99.90;;;;;;5095922;28;20174;-48
2021/05/20 03:23:46;;;;;;;1.67;1.40;;;9.50;99.90;;;;;;5096032;28;20193;-48
2021/05/20 03:26:12;;;;;;;1.27;1.17;;;9.40;99.90;;;;;;5096043;28;20213;-47
2021/05/20 03:28:37;;;;;;;1.67;1.20;;;9.50;99.90;;;;;;5095850;28;20166;-47
2021/05/20 03:31:03;;;;;;;2.20;1.40;;;9.50;99.90;;;;;;5095497;27;20177;-48
2021/05/20 03:33:28;;;;;;;1.87;1.50;;;9.50;99.90;;;;;;5095456;28;20243;-51
2021/05/20 03:35:56;;;;;;;1.50;1.40;;;9.50;99.90;;;;;;5095290;28;20189;-53
2021/05/20 03:38:23;;;;;;;1.60;1.40;;;9.40;99.90;;;;;;5092095;28;20186;-49
2021/05/20 03:40:49;;;;;;;2.50;1.30;;;9.50;99.90;;;;;;5095690;28;20174;-48
2021/05/20 03:43:14;;;;;;;1.40;1.30;;;9.40;99.90;;;;;;5095601;28;20200;-49
2021/05/20 03:45:40;;;;;;;1.67;1.57;;;9.40;99.90;;;;;;5094696;28;20686;-47
2021/05/20 03:48:06;;;;;;;1.40;1.30;;;9.50;99.90;;;;;;5095837;28;20588;-52
2021/05/20 03:50:31;;;;;;;1.80;1.70;;;9.40;99.90;;;;;;5094951;28;20169;-52
2021/05/20 03:53:00;;;;;;;2.63;1.50;;;9.50;99.90;;;;;;5095705;28;20199;-52
2021/05/20 03:55:26;;;;;;;3.00;1.70;;;9.50;99.90;;;;;;5095544;28;20174;-47
2021/05/20 03:57:52;;;;;;;1.53;1.43;;;9.40;99.90;;;;;;5095562;28;20189;-50
2021/05/20 04:00:18;;;;;;;1.77;1.67;;;9.40;99.90;;;;;;5095628;28;20185;-49
2021/05/20 04:02:44;;;;;;;1.70;1.60;;;9.50;99.90;;;;;;5095316;28;20169;-51
2021/05/20 04:05:10;;;;;;;2.87;1.87;;;9.50;99.90;;;;;;5095312;28;20201;-49
2021/05/20 04:07:36;;;;;;;1.63;1.53;;;9.70;99.90;;;;;;5095314;28;20197;-51
2021/05/20 04:10:03;;;;;;;1.67;1.57;;;9.70;99.90;;;;;;5094119;28;20238;-55
2021/05/20 04:12:28;;;;;;;1.60;1.50;;;9.70;99.90;;;;;;5094412;28;20185;-49
2021/05/20 04:14:54;;;;;;;1.60;1.50;;;9.80;99.90;;;;;;5094628;28;20537;-47
2021/05/20 04:17:19;;;;;;;1.67;1.57;;;9.80;99.90;;;;;;5094962;28;20197;-51
2021/05/20 04:19:45;;;;;;;1.50;1.40;;;9.80;99.90;;;;;;5095301;28;20522;-51
2021/05/20 04:22:10;;;;;;;1.47;1.37;;;9.80;99.90;;;;;;5094933;28;20170;-53
2021/05/20 04:24:36;;;;;;;1.80;1.67;;;9.90;99.90;;;;;;5094934;28;20205;-52
2021/05/20 04:27:03;;;;;;;3.17;1.47;;;9.90;99.90;;;;;;5093816;28;20198;-53
2021/05/20 04:29:29;;;;;;;1.80;1.70;;;9.90;99.90;;;;;;5095048;28;20174;-50
2021/05/20 04:31:54;;;;;;;1.30;1.30;;;9.90;99.90;;;;;;5076274;28;20180;-47
2021/05/20 04:34:20;;;;;;;1.60;1.50;;;9.90;99.90;;;;;;5094041;28;20204;-48
2021/05/20 04:36:45;;;;;;;2.10;1.70;;;10.00;99.90;;;;;;5094881;28;20225;-51
2021/05/20 04:39:11;;;;;;;1.70;1.60;;;9.90;99.90;;;;;;5092967;28;20205;-51
2021/05/20 04:41:37;;;;;;;1.70;1.60;;;9.80;99.90;;;;;;5093932;28;20576;-51
2021/05/20 04:44:02;;;;;;;1.87;1.53;;;9.80;99.90;;;;;;5094436;28;20228;-54
2021/05/20 04:46:28;;;;;;;2.13;1.47;;;9.70;99.90;;;;;;5093584;28;20189;-51
2021/05/20 04:48:53;;;;;;;1.80;1.53;;;9.70;99.90;;;;;;5091040;28;20170;-50
2021/05/20 04:51:20;;;;;;;3.53;1.90;;;9.70;99.90;;;;;;5086539;28;20186;-47
2021/05/20 04:53:45;;;;;;;2.10;1.70;;;9.80;99.90;;;;;;5089970;28;20261;-50
2021/05/20 04:56:11;;;;;;;2.00;1.77;;;9.80;99.90;;;;;;5089897;28;20288;-49
2021/05/20 04:58:37;;;;;;;2.43;1.80;;;9.90;99.90;;;;;;5092491;28;20200;-47
2021/05/20 05:01:03;;;;;;;3.33;2.00;;;9.90;99.90;;;;;;5092753;28;20237;-49
2021/05/20 05:03:29;;;;;;;2.70;2.27;;;9.90;99.90;;;;;;5094009;28;20285;-47
2021/05/20 05:05:54;;;;;;;3.07;2.10;;;9.90;99.90;;;;;;5094203;28;20213;-48
2021/05/20 05:08:20;;;;;;;3.33;2.30;;;9.90;99.90;;;;;;5094812;28;20174;-51
2021/05/20 05:10:46;;;;;;;1.57;1.47;;;9.90;99.90;;;;;;5095491;28;20176;-48
2021/05/20 05:13:11;;;;;;;2.47;1.70;;;9.90;99.90;;;;;;5075005;28;20303;-51
2021/05/20 05:15:37;;;;;;;2.00;1.73;;;10.00;99.90;;;;;;5089679;28;20253;-49
2021/05/20 05:18:03;;;;;;;2.77;1.90;;;10.00;99.90;;;;;;5059563;28;20194;-49
2021/05/20 05:20:28;;;;;;;2.43;1.83;;;10.10;99.90;;;;;;5087310;28;20260;-49
2021/05/20 05:22:54;;;;;;;2.10;1.67;;;10.10;99.90;;;;;;5092748;28;20235;-49
2021/05/20 05:25:20;;;;;;;1.93;1.70;;;10.00;99.90;;;;;;5094358;28;20201;-49
2021/05/20 05:27:46;;;;;;;1.80;1.70;;;9.90;99.90;;;;;;5094282;28;20194;-52
2021/05/20 05:30:12;;;;;;;1.93;1.73;;;9.80;99.90;;;;;;5094336;28;20177;-50
2021/05/20 05:32:37;;;;;;;3.13;1.80;;;9.90;99.90;;;;;;5092521;28;20189;-51
2021/05/20 05:35:03;;;;;;;2.80;1.80;;;9.90;99.90;;;;;;5093442;28;20261;-48
2021/05/20 05:37:29;;;;;;;2.20;2.00;;;9.90;99.90;;;;;;5090945;28;20710;-50
2021/05/20 05:39:54;;;;;;;2.07;1.97;;;9.90;99.90;;;;;;5092197;28;20208;-51
2021/05/20 05:42:20;;;;;;;1.87;1.77;;;10.00;99.90;;;;;;5093534;28;20182;-48
2021/05/20 05:44:46;;;;;;;2.90;2.30;;;10.00;99.90;;;;;;5092594;28;20213;-48
2021/05/20 05:47:11;;;;;;;3.87;2.43;;;10.00;99.90;;;;;;5093466;28;20201;-48
2021/05/20 05:49:49;;;;;;;2.40;2.20;;;10.10;99.90;;;;;;5094157;28;20263;-49
2021/05/20 05:52:22;;;;;;;6.37;2.43;;;10.10;99.90;;;;;;5095932;28;20712;-49
2021/05/20 05:54:49;;;;;;;4.10;2.57;;;10.10;99.90;;;;;;5098224;28;20220;-50
2021/05/20 05:57:15;;;;;;;2.83;2.50;;;10.20;99.90;;;;;;5097818;28;20204;-50
2021/05/20 05:59:40;;;;;;;3.40;3.10;;;10.20;99.90;;;;;;5095281;28;20182;-48
2021/05/20 06:02:06;;;;;;;3.13;2.83;;;10.30;99.90;;;;;;5097711;28;20564;-50
2021/05/20 06:04:33;;;;;;;3.87;3.33;;;10.40;99.90;;;;;;5097428;28;20208;-49
2021/05/20 06:06:59;;;;;;;3.40;2.87;;;10.40;99.90;;;;;;5097375;28;20295;-52
2021/05/20 06:09:25;;;;;;;3.63;2.70;;;10.60;99.90;;;;;;5096666;28;20197;-52
2021/05/20 06:11:50;;;;;;;4.23;2.90;;;10.80;99.90;;;;;;5096963;28;20617;-49
2021/05/20 06:14:16;;;;;;;2.83;2.60;;;10.80;99.90;;;;;;5096361;28;20264;-48
2021/05/20 06:16:43;;;;;;;3.30;2.60;;;10.80;99.90;;;;;;5097460;28;20288;-47
2021/05/20 06:19:09;;;;;;;4.97;3.00;;;10.80;99.90;;;;;;5097936;28;20205;-47
2021/05/20 06:21:35;;;;;;;5.00;2.77;;;10.70;99.90;;;;;;5096729;28;20252;-50
2021/05/20 06:24:01;;;;;;;2.60;2.40;;;10.60;99.90;;;;;;5096452;28;20292;-50
2021/05/20 06:26:28;;;;;;;3.53;2.67;;;10.60;99.90;;;;;;5096075;28;20201;-49
2021/05/20 06:28:53;;;;;;;3.47;2.50;;;10.50;99.90;;;;;;5096242;28;20368;-47
2021/05/20 06:31:19;;;;;;;3.63;2.60;;;10.60;99.90;;;;;;5094915;28;20337;-47
2021/05/20 06:33:44;;;;;;;3.27;2.67;;;10.60;99.90;;;;;;5097279;28;20178;-47
2021/05/20 06:36:11;;;;;;;3.67;2.67;;;10.60;99.90;;;;;;5096261;28;20285;-50
2021/05/20 06:38:36;;;;;;;3.20;2.90;;;10.60;99.90;;;;;;5095553;28;20189;-49
2021/05/20 06:41:06;;;;;;;2.80;2.60;;;10.60;99.90;;;;;;5095023;28;20181;-55
2021/05/20 06:43:32;;;;;;;2.90;2.70;;;10.70;99.90;;;;;;5096571;28;20264;-47
2021/05/20 06:45:57;;;;;;;2.90;2.70;;;10.70;99.90;;;;;;5096513;28;20226;-47
2021/05/20 06:48:23;;;;;;;3.67;3.10;;;10.70;99.90;;;;;;5096059;28;20571;-47
2021/05/20 06:50:48;;;;;;;5.60;2.97;;;10.70;99.90;;;;;;5096346;28;20221;-49
2021/05/20 06:53:18;;;;;;;3.93;2.77;;;10.70;99.90;;;;;;5095369;28;20181;-48
2021/05/20 06:55:44;;;;;;;2.70;2.50;;;10.60;99.90;;;;;;5096972;28;20174;-50
2021/05/20 07:00:36;;;;;;;3.63;2.73;;;10.60;99.90;;;;;;5096688;28;20158;-50
2021/05/20 07:03:04;;;;;;;4.33;2.90;;;10.70;99.90;;;;;;5095586;28;20184;-48
2021/05/20 07:05:30;;;;;;;4.10;2.73;;;10.70;99.90;;;;;;5096685;28;20246;-47
2021/05/20 07:07:57;;;;;;;3.57;2.70;;;10.80;99.90;;;;;;5096687;28;20653;-47
2021/05/20 07:10:23;;;;;;;2.80;2.60;;;10.90;99.90;;;;;;5096543;28;20162;-48
2021/05/20 07:12:48;;;;;;;3.00;2.73;;;11.10;99.90;;;;;;5097133;28;20172;-54
2021/05/20 07:15:14;;;;;;;3.17;2.87;;;11.10;99.90;;;;;;5095394;28;20177;-49
2021/05/20 07:17:39;;;;;;;3.67;3.20;;;11.10;99.90;;;;;;5096434;28;20680;-48
2021/05/20 07:20:07;;;;;;;3.23;2.90;;;11.10;99.90;;;;;;5095388;28;20200;-48
2021/05/20 07:22:33;;;;;;;3.17;2.87;;;11.00;99.90;;;;;;5095990;28;20166;-52
2021/05/20 07:25:05;;;;;;;2.90;2.70;;;11.00;99.90;;;;;;5096382;28;20208;-47
2021/05/20 07:27:32;;;;;;;3.30;3.00;;;11.10;99.90;;;;;;5096086;28;20561;-48
2021/05/20 07:29:58;;;;;;;3.30;3.00;;;11.10;99.90;;;;;;5095973;28;20203;-48
2021/05/20 07:32:25;;;;;;;3.40;3.10;;;11.20;99.90;;;;;;5095888;28;20162;-53
2021/05/20 07:34:51;;;;;;;3.00;2.80;;;11.20;99.90;;;;;;5094228;28;20170;-54
2021/05/20 07:37:17;;;;;;;3.53;3.23;;;11.20;99.90;;;;;;5095291;28;20206;-48
2021/05/20 07:39:42;;;;;;;3.40;3.10;;;11.30;99.90;;;;;;5096190;28;20193;-50
2021/05/20 07:42:08;;;;;;;3.27;2.97;;;11.30;99.90;;;;;;5094964;28;20174;-47
2021/05/20 07:44:36;;;;;;;3.20;2.90;;;11.30;99.90;;;;;;5095958;28;20225;-48
2021/05/20 07:47:02;;;;;;;3.50;3.20;;;11.30;99.90;;;;;;5096166;28;20767;-48
2021/05/20 07:49:27;;;;;;;4.13;3.40;;;11.10;99.90;;;;;;5096188;28;20201;-52
2021/05/20 07:51:53;;;;;;;3.20;2.77;;;11.30;99.90;;;;;;5095639;28;20166;-49
2021/05/20 07:54:19;;;;;;;2.70;2.50;;;11.20;99.90;;;;;;5094777;28;20186;-52
2021/05/20 07:56:45;;;;;;;3.17;2.87;;;11.10;99.90;;;;;;5095725;28;20194;-51
2021/05/20 07:59:12;;;;;;;3.00;2.80;;;11.10;99.90;;;;;;5077254;28;20567;-48
2021/05/20 08:01:44;;;;;;;3.10;2.60;;;11.20;99.90;;;;;;5095025;28;20178;-49
2021/05/20 08:04:12;;;;;;;2.87;2.67;;;11.30;99.90;;;;;;5096613;28;20206;-51
2021/05/20 08:09:20;;;;;;;2.87;2.53;;;11.50;99.90;;;;;;5094777;28;20173;-48
2021/05/20 08:11:45;;;;;;;2.77;2.57;;;11.50;99.90;;;;;;5095112;28;20185;-48
2021/05/20 08:14:11;;;;;;;4.30;2.50;;;11.50;99.90;;;;;;5093272;28;20174;-48
2021/05/20 08:16:37;;;;;;;3.27;2.93;;;11.50;99.90;;;;;;5094402;28;20194;-48
2021/05/20 08:19:02;;;;;;;3.10;2.90;;;11.50;99.90;;;;;;5095353;28;20173;-49
2021/05/20 08:21:29;;;;;;;4.90;3.07;;;11.40;99.90;;;;;;5095825;28;20640;-56
2021/05/20 08:23:55;;;;;;;3.30;3.00;;;11.40;99.90;;;;;;5094076;28;20240;-50
2021/05/20 08:26:24;;;;;;;3.20;2.90;;;11.60;99.90;;;;;;5094908;28;20661;-49
2021/05/20 08:28:54;;;;;;;2.97;2.77;;;11.80;99.90;;;;;;5093893;28;20584;-48
2021/05/20 08:31:20;;;;;;;2.83;2.63;;;11.90;99.90;;;;;;5094962;28;20219;-48
2021/05/20 08:33:46;;;;;;;2.60;2.40;;;12.00;99.90;;;;;;5095036;28;20170;-48
2021/05/20 08:36:12;;;;;;;2.70;2.50;;;12.10;99.90;;;;;;5093701;28;20209;-48
2021/05/20 08:38:37;;;;;;;2.77;2.57;;;12.00;99.90;;;;;;5095184;28;20192;-51
2021/05/20 08:41:03;;;;;;;3.43;2.80;;;11.90;99.90;;;;;;5093632;28;20181;-48
2021/05/20 08:43:29;;;;;;;5.67;3.10;;;11.80;99.90;;;;;;5094768;28;20201;-50
2021/05/20 08:45:55;;;;;;;3.20;2.90;;;11.70;99.90;;;;;;5094749;28;20178;-48
2021/05/20 08:48:21;;;;;;;3.80;2.90;;;11.60;99.90;;;;;;5094877;28;20170;-49
2021/05/20 08:50:46;;;;;;;3.03;2.83;;;11.60;99.90;;;;;;5094537;28;20173;-49
2021/05/20 08:53:13;;;;;;;3.60;3.17;;;11.80;99.90;;;;;;5093323;28;20242;-48
2021/05/20 08:55:38;;;;;;;3.03;2.70;;;12.00;99.90;;;;;;5095261;28;20177;-55
2021/05/20 08:58:08;;;;;;;6.07;4.47;;;12.00;99.90;;;;;;5093267;28;20190;-48
2021/05/20 09:00:34;;;;;;;3.00;2.80;;;12.20;99.90;;;;;;5094343;28;20215;-49
2021/05/20 09:03:07;;;;;;;3.60;2.63;;;12.40;99.90;;;;;;5094184;28;20223;-50
2021/05/20 09:05:33;;;;;;;4.30;2.90;;;12.50;99.90;;;;;;5093657;28;20592;-48
2021/05/20 09:08:01;;;;;;;4.00;2.73;;;12.60;99.90;;;;;;5094425;28;20649;-49
2021/05/20 09:10:30;;;;;;;4.93;4.43;;;12.70;99.90;;;;;;5093472;28;20218;-48
2021/05/20 09:13:21;;;;;;;3.23;2.33;;;12.80;99.90;;;;;;5095371;28;20277;-51
2021/05/20 09:15:51;;;;;;;2.30;2.20;;;12.90;99.90;;;;;;5094336;28;20174;-51
2021/05/20 09:18:20;;;;;;;3.57;2.40;;;12.90;99.90;;;;;;5094380;28;20170;-50
2021/05/20 09:20:55;;;;;;;2.80;2.30;;;12.80;99.90;;;;;;5094209;28;20684;-49
2021/05/20 09:23:26;;;;;;;2.47;2.10;;;12.90;99.90;;;;;;5094556;28;20200;-49
2021/05/20 09:26:02;;;;;;;2.07;1.87;;;12.90;99.90;;;;;;5093276;28;20527;-53
2021/05/20 09:28:38;;;;;;;2.10;2.00;;;13.10;99.90;;;;;;5093229;28;20254;-48
2021/05/20 09:31:04;;;;;;;2.13;1.97;;;13.00;99.90;;;;;;5093945;28;20163;-52
2021/05/20 09:33:30;;;;;;;2.60;2.10;;;12.90;99.90;;;;;;5093376;28;20263;-48
2021/05/20 09:35:56;;;;;;;3.43;1.93;;;13.00;99.90;;;;;;5093932;28;20235;-48
2021/05/20 09:38:23;;;;;;;2.07;1.87;;;12.90;99.90;;;;;;5093884;28;20206;-49
2021/05/20 09:40:56;;;;;;;1.90;1.60;;;12.90;99.90;;;;;;5093941;28;20660;-50
2021/05/20 09:43:35;;;;;;;1.70;1.60;;;13.00;99.90;;;;;;5092736;28;20191;-48
2021/05/20 09:46:18;;;;;;;1.60;1.50;;;13.20;99.90;;;;;;5093725;28;20514;-48
2021/05/20 09:48:46;;;;;;;1.73;1.47;;;13.60;99.90;;;;;;5092985;28;20182;-48
2021/05/20 09:51:28;;;;;;;2.97;1.40;;;13.70;99.90;;;;;;5087778;28;20225;-48
2021/05/20 09:53:54;;;;;;;1.60;1.50;;;13.80;99.90;;;;;;5082782;28;20266;-51
2021/05/20 09:56:31;;;;;;;2.53;1.20;;;13.90;99.90;;;;;;5074609;28;20197;-48
2021/05/20 09:58:56;;;;;;;1.40;1.30;;;14.00;99.90;;;;;;5082722;28;20192;-46
2021/05/20 10:01:22;;;;;;;1.40;1.30;;;14.20;99.90;;;;;;5090343;28;20186;-49
2021/05/20 10:03:52;;;;;;;1.53;1.43;;;14.10;99.90;;;;;;5075508;28;20222;-46
2021/05/20 10:06:37;;;;;;;1.70;1.30;;;13.90;99.90;;;;;;5080180;28;20223;-49
2021/05/20 10:09:05;;;;;;;3.03;1.40;;;13.80;99.90;;;;;;5090898;28;20199;-47
2021/05/20 10:11:32;;;;;;;1.10;1.10;;;13.80;99.90;;;;;;5078949;28;20236;-48
2021/05/20 10:13:58;;;;;;;1.63;1.20;;;13.60;99.90;;;;;;5074015;28;20174;-47
2021/05/20 10:16:27;;;;;;;1.30;1.20;;;13.40;99.90;;;;;;5092359;28;20214;-48
2021/05/20 10:18:54;;;;;;;1.20;1.10;;;13.20;99.90;;;;;;5091943;28;20178;-45
2021/05/20 10:21:20;;;;;;;1.67;1.00;;;13.20;99.90;;;;;;5092569;28;20199;-49
2021/05/20 10:23:45;;;;;;;1.03;1.00;;;13.30;99.90;;;;;;5093138;28;20207;-48
2021/05/20 10:26:13;;;;;;;1.70;1.10;;;13.40;99.90;;;;;;5092707;28;20196;-47
2021/05/20 10:28:38;;;;;;;1.20;1.10;;;13.70;99.90;;;;;;5092481;28;20294;-48
2021/05/20 10:31:04;;;;;;;1.50;1.27;;;13.90;99.90;;;;;;5093031;28;20269;-48
2021/05/20 10:33:30;;;;;;;2.57;1.37;;;14.10;99.90;;;;;;5092349;28;20173;-49
2021/05/20 10:35:58;;;;;;;1.63;1.30;;;14.30;99.90;;;;;;5091114;28;20291;-50
2021/05/20 10:38:35;;;;;;;1.50;1.40;;;14.30;99.90;;;;;;5095581;28;20262;-51
2021/05/20 10:41:13;;;;;;;2.03;1.20;;;14.30;99.90;;;;;;5095858;28;20158;-48
2021/05/20 10:43:40;;;;;;;2.57;1.50;;;14.40;99.90;;;;;;5096889;28;20667;-47
2021/05/20 10:46:11;;;;;;;1.50;1.40;;;14.60;99.90;;;;;;5095585;28;20202;-51
2021/05/20 10:48:47;;;;;;;1.83;1.60;;;14.70;99.90;;;;;;5096867;28;20235;-51
2021/05/20 10:51:16;;;;;;;1.77;1.37;;;14.60;99.90;;;;;;5096316;28;20180;-52
2021/05/20 10:53:54;;;;;;;2.13;1.50;;;14.50;99.90;;;;;;5095507;28;20311;-46
2021/05/20 10:56:23;;;;;;;3.70;1.33;;;14.40;99.90;;;;;;5093662;28;20193;-48
2021/05/20 10:58:50;;;;;;;1.70;1.50;;;14.40;99.90;;;;;;5076439;28;20189;-47
2021/05/20 11:01:25;;;;;;;1.50;1.40;;;14.30;99.90;;;;;;5095156;28;20209;-47
2021/05/20 11:04:02;;;;;;;1.20;1.10;;;14.40;99.90;;;;;;5094783;28;20212;-46
2021/05/20 11:06:37;;;;;;;1.20;1.10;;;14.40;99.90;;;;;;5096022;28;20280;-54
2021/05/20 11:09:09;;;;;;;1.80;1.47;;;14.50;99.90;;;;;;5095635;28;20700;-48
2021/05/20 11:11:35;;;;;;;3.27;1.33;;;14.70;99.90;;;;;;5095664;28;20742;-51
2021/05/20 11:14:01;;;;;;;1.47;1.07;;;14.70;99.90;;;;;;5096508;28;20174;-46
2021/05/20 11:16:32;;;;;;;0.90;0.90;;;14.80;99.90;;;;;;5096148;28;20720;-46
2021/05/20 11:19:23;;;;;;;1.70;1.30;;;15.00;99.90;;;;;;5095382;28;20196;-53
2021/05/20 11:22:04;;;;;;;2.50;1.30;;;15.10;99.90;;;;;;5094985;28;20174;-55
2021/05/20 11:24:34;;;;;;;0.80;0.80;;;15.10;99.90;;;;;;5095321;28;20209;-48
2021/05/20 11:27:02;;;;;;;1.00;1.00;;;15.20;99.90;;;;;;5096612;28;20197;-47
2021/05/20 11:29:38;;;;;;;1.13;1.00;;;15.20;99.90;;;;;;5095465;28;20172;-54
2021/05/20 11:37:38;;;;;;;1.80;1.20;;;15.10;99.90;;;;;;5086810;28;20206;-48
2021/05/20 11:40:06;;;;;;;1.17;1.03;;;15.20;99.90;;;;;;5075185;28;20193;-48
2021/05/20 11:42:33;;;;;;;2.10;1.00;;;15.70;99.90;;;;;;5075762;28;20171;-51
2021/05/20 11:45:04;;;;;;;1.83;1.00;;;15.80;99.90;;;;;;5074075;28;20289;-49
2021/05/20 11:47:30;;;;;;;0.73;0.70;;;15.90;99.90;;;;;;5075710;28;20516;-53
2021/05/20 11:49:55;;;;;;;0.97;0.80;;;16.10;99.90;;;;;;5074824;28;20664;-51
2021/05/20 11:52:24;;;;;;;0.87;0.87;;;16.40;99.90;;;;;;5074679;28;20180;-49
2021/05/20 11:54:51;;;;;;;0.93;0.90;;;16.60;99.90;;;;;;5075673;28;20201;-51
2021/05/20 11:57:20;;;;;;;2.40;1.20;;;16.80;99.90;;;;;;5075298;28;20211;-56
2021/05/20 11:59:53;;;;;;;0.83;0.83;;;16.50;99.90;;;;;;5075312;28;20650;-49
2021/05/20 12:02:19;;;;;;;1.20;1.10;;;16.00;99.90;;;;;;5075082;28;20209;-47
2021/05/20 12:04:45;;;;;;;1.37;1.10;;;15.60;99.90;;;;;;5075918;28;20226;-48
2021/05/20 12:07:22;;;;;;;1.20;1.03;;;15.50;99.90;;;;;;5076136;28;20191;-50
2021/05/20 12:09:48;;;;;;;2.27;1.03;;;15.20;99.90;;;;;;5094600;28;20196;-51
2021/05/20 12:12:16;;;;;;;1.60;1.50;;;15.20;99.90;;;;;;5080557;28;20183;-48
2021/05/20 12:14:42;;;;;;;2.30;1.60;;;15.00;99.90;;;;;;5074660;28;20179;-51
2021/05/20 12:17:13;;;;;;;2.10;1.20;;;14.90;99.90;;;;;;5074498;28;20198;-47
2021/05/20 12:19:45;;;;;;;2.27;1.27;;;14.90;99.90;;;;;;5075093;28;20182;-47
2021/05/20 12:22:16;;;;;;;1.23;1.13;;;14.80;99.90;;;;;;5075003;28;20209;-48
2021/05/20 12:24:47;;;;;;;0.97;0.97;;;14.70;99.90;;;;;;5074935;28;20202;-51
2021/05/20 12:27:27;;;;;;;1.40;1.30;;;14.70;99.90;;;;;;5075088;28;20191;-54
2021/05/20 12:29:58;;;;;;;1.93;1.30;;;14.90;99.90;;;;;;5075249;28;20185;-51
2021/05/20 12:32:30;;;;;;;1.17;1.00;;;15.00;99.90;;;;;;5074637;28;20178;-47
2021/05/20 12:35:23;;;;;;;0.80;0.80;;;15.10;99.90;;;;;;5075044;28;20202;-46
2021/05/20 12:37:52;;;;;;;0.77;0.70;;;15.10;99.90;;;;;;5074562;28;20198;-49
2021/05/20 12:40:24;;;;;;;0.80;0.80;;;14.80;99.90;;;;;;5073560;28;20610;-48
2021/05/20 12:43:04;;;;;;;2.30;0.90;;;15.10;99.90;;;;;;5074570;28;20166;-51
2021/05/20 12:45:41;;;;;;;0.70;0.70;;;14.50;99.90;;;;;;5073501;28;20215;-49
2021/05/20 12:48:36;;;;;;;0.97;0.70;;;14.60;99.90;;;;;;5074104;28;20228;-47
2021/05/20 12:51:14;;;;;;;0.63;0.63;;;14.50;99.90;;;;;;5074837;28;20194;-47
2021/05/20 12:53:42;;;;;;;1.93;0.80;;;14.40;99.90;;;;;;5073839;28;20264;-54
2021/05/20 12:56:28;;;;;;;0.50;0.50;;;14.40;99.90;;;;;;5074026;28;20202;-54
2021/05/20 12:59:05;;;;;;;0.50;0.50;;;14.30;99.90;;;;;;5074380;28;20162;-47
2021/05/20 13:01:39;;;;;;;0.70;0.70;;;14.30;99.90;;;;;;5072843;28;20632;-52
2021/05/20 13:04:18;;;;;;;0.40;0.40;;;14.20;99.90;;;;;;5074392;28;20211;-47
2021/05/20 13:06:44;;;;;;;0.60;0.60;;;14.20;99.90;;;;;;5074105;28;20784;-47
2021/05/20 13:09:14;;;;;;;1.73;0.73;;;14.10;99.90;;;;;;5074746;28;20181;-46